createdAt,value
2023-04-16T00:02:27.563Z,5.13
2023-04-16T00:04:55.212Z,3.30
2023-04-16T00:07:22.764Z,2.97
2023-04-16T00:09:50.565Z,3.50
2023-04-16T00:12:18.034Z,3.13
2023-04-16T00:14:45.415Z,3.90
2023-04-16T00:17:12.816Z,4.17
2023-04-16T00:19:41.596Z,3.63
2023-04-16T00:22:08.975Z,4.13
2023-04-16T00:24:36.698Z,3.97
2023-04-16T00:27:04.130Z,3.83
2023-04-16T00:29:33.638Z,3.93
2023-04-16T00:32:02.869Z,3.77
2023-04-16T00:34:30.557Z,3.73
2023-04-16T00:36:59.247Z,3.70
2023-04-16T00:39:26.654Z,3.73
2023-04-16T00:41:54.117Z,4.60
2023-04-16T00:44:21.547Z,4.00
2023-04-16T00:46:48.907Z,3.70
2023-04-16T00:49:16.506Z,4.20
2023-04-16T00:51:43.978Z,4.17
2023-04-16T00:54:12.783Z,4.43
2023-04-16T00:56:40.695Z,4.03
2023-04-16T00:59:08.487Z,4.63
2023-04-16T01:01:36.300Z,4.40
2023-04-16T01:04:03.852Z,4.33
2023-04-16T01:06:32.057Z,4.30
2023-04-16T01:08:59.518Z,4.27
2023-04-16T01:11:28.260Z,5.03
2023-04-16T01:13:55.887Z,4.53
2023-04-16T01:16:23.344Z,4.30
2023-04-16T01:18:50.922Z,4.00
2023-04-16T01:21:19.708Z,4.33
2023-04-16T01:23:47.161Z,3.97
2023-04-16T01:26:14.647Z,3.70
2023-04-16T01:28:42.456Z,3.37
2023-04-16T01:31:09.904Z,4.57
2023-04-16T01:33:56.401Z,3.90
2023-04-16T01:36:26.825Z,4.60
2023-04-16T01:38:54.225Z,3.90
2023-04-16T01:41:21.658Z,3.50
2023-04-16T01:43:49.093Z,3.97
2023-04-16T01:46:19.688Z,4.20
2023-04-16T01:48:47.588Z,4.30
2023-04-16T01:51:14.964Z,4.30
2023-04-16T01:53:43.739Z,4.40
2023-04-16T01:56:11.150Z,3.70
2023-04-16T01:58:38.508Z,3.43
2023-04-16T02:01:06.613Z,4.30
2023-04-16T02:03:34.872Z,3.93
2023-04-16T02:06:04.356Z,3.43
2023-04-16T02:08:31.908Z,3.80
2023-04-16T02:11:02.625Z,3.30
2023-04-16T02:13:30.398Z,3.23
2023-04-16T02:15:57.899Z,3.53
2023-04-16T02:18:37.147Z,3.20
2023-04-16T02:21:06.363Z,3.07
2023-04-16T02:23:33.793Z,3.37
2023-04-16T02:26:03.849Z,3.20
2023-04-16T02:28:31.556Z,3.37
2023-04-16T02:30:59.083Z,3.40
2023-04-16T02:33:28.632Z,3.40
2023-04-16T02:36:01.065Z,3.13
2023-04-16T02:38:28.474Z,2.87
2023-04-16T02:40:55.947Z,3.03
2023-04-16T02:43:24.744Z,3.13
2023-04-16T02:45:52.210Z,2.90
2023-04-16T02:48:19.724Z,3.07
2023-04-16T02:50:47.154Z,3.10
2023-04-16T02:53:14.536Z,3.47
2023-04-16T02:55:42.033Z,3.57
2023-04-16T02:58:09.490Z,3.90
2023-04-16T03:00:38.757Z,3.77
2023-04-16T03:03:06.725Z,4.17
2023-04-16T03:05:34.178Z,4.00
2023-04-16T03:08:01.635Z,4.33
2023-04-16T03:10:29.028Z,4.23
2023-04-16T03:12:56.404Z,4.40
2023-04-16T03:15:24.027Z,4.20
2023-04-16T03:17:52.752Z,4.87
2023-04-16T03:20:20.309Z,4.20
2023-04-16T03:22:47.870Z,4.87
2023-04-16T03:25:15.336Z,4.40
2023-04-16T03:27:42.770Z,4.97
2023-04-16T03:30:12.165Z,4.73
2023-04-16T03:32:39.727Z,4.73
2023-04-16T03:35:09.563Z,4.70
2023-04-16T03:37:38.120Z,4.83
2023-04-16T03:40:07.219Z,4.87
2023-04-16T03:42:34.954Z,4.80
2023-04-16T03:45:03.675Z,5.23
2023-04-16T03:47:32.220Z,5.10
2023-04-16T03:50:03.062Z,5.37
2023-04-16T03:52:31.741Z,6.00
2023-04-16T03:54:59.112Z,4.97
2023-04-16T03:57:28.784Z,5.13
2023-04-16T04:00:01.962Z,5.37
2023-04-16T04:02:41.921Z,5.27
2023-04-16T04:05:16.518Z,5.43
2023-04-16T04:07:46.688Z,5.33
2023-04-16T04:10:15.574Z,5.20
2023-04-16T04:12:43.370Z,5.50
2023-04-16T04:15:11.555Z,6.00
2023-04-16T04:17:39.025Z,5.73
2023-04-16T04:20:07.134Z,5.47
2023-04-16T04:22:34.511Z,5.50
2023-04-16T04:25:03.313Z,5.93
2023-04-16T04:27:32.863Z,5.37
2023-04-16T04:30:00.346Z,5.43
2023-04-16T04:32:28.381Z,4.60
2023-04-16T04:34:55.835Z,4.20
2023-04-16T04:37:23.238Z,4.67
2023-04-16T04:39:50.884Z,4.67
2023-04-16T04:42:19.999Z,4.57
2023-04-16T04:44:47.868Z,4.77
2023-04-16T04:47:15.870Z,4.67
2023-04-16T04:49:43.300Z,5.13
2023-04-16T04:52:11.508Z,5.83
2023-04-16T04:54:41.509Z,5.60
2023-04-16T04:57:09.012Z,5.87
2023-04-16T04:59:37.759Z,6.20
2023-04-16T05:02:05.642Z,6.50
2023-04-16T05:04:33.063Z,5.77
2023-04-16T05:07:01.730Z,6.10
2023-04-16T05:09:29.135Z,6.50
2023-04-16T05:11:57.389Z,5.90
2023-04-16T05:14:24.784Z,6.03
2023-04-16T05:16:54.029Z,6.43
2023-04-16T05:19:21.670Z,6.13
2023-04-16T05:21:49.040Z,5.70
2023-04-16T05:24:16.439Z,6.47
2023-04-16T05:26:43.784Z,7.83
2023-04-16T05:29:11.438Z,7.13
2023-04-16T05:31:39.231Z,7.73
2023-04-16T05:34:08.003Z,7.50
2023-04-16T05:36:35.431Z,7.43
2023-04-16T05:39:02.887Z,7.33
2023-04-16T05:41:30.284Z,6.77
2023-04-16T05:43:57.697Z,6.87
2023-04-16T05:46:25.074Z,6.67
2023-04-16T05:48:52.433Z,6.83
2023-04-16T05:51:22.939Z,7.97
2023-04-16T05:53:50.298Z,6.83
2023-04-16T05:56:17.732Z,7.30
2023-04-16T05:58:45.129Z,12.90
2023-04-16T06:01:12.481Z,8.37
2023-04-16T06:03:39.937Z,12.60
2023-04-16T06:06:08.740Z,7.03
2023-04-16T06:08:37.489Z,7.23
2023-04-16T06:11:05.005Z,7.27
2023-04-16T06:13:32.399Z,6.43
2023-04-16T06:15:59.864Z,6.07
2023-04-16T06:18:27.296Z,6.20
2023-04-16T06:20:55.151Z,6.80
2023-04-16T06:23:22.589Z,7.10
2023-04-16T06:25:51.700Z,6.50
2023-04-16T06:28:19.077Z,5.83
2023-04-16T06:30:47.423Z,5.10
2023-04-16T06:33:14.801Z,5.30
2023-04-16T06:35:42.254Z,5.00
2023-04-16T06:38:09.617Z,4.80
2023-04-16T06:40:37.436Z,4.77
2023-04-16T06:43:06.272Z,5.07
2023-04-16T06:45:33.649Z,4.40
2023-04-16T06:48:01.569Z,5.47
2023-04-16T06:50:29.207Z,4.70
2023-04-16T06:52:57.047Z,4.80
2023-04-16T06:55:24.462Z,5.47
2023-04-16T06:57:51.821Z,5.60
2023-04-16T07:00:20.788Z,5.10
2023-04-16T07:02:48.319Z,4.63
2023-04-16T07:05:16.008Z,5.17
2023-04-16T07:07:43.364Z,4.97
2023-04-16T07:10:11.219Z,5.43
2023-04-16T07:12:38.701Z,5.90
2023-04-16T07:15:06.876Z,6.27
2023-04-16T07:17:35.738Z,5.93
2023-04-16T07:20:03.153Z,6.40
2023-04-16T07:22:30.536Z,6.07
2023-04-16T07:24:57.953Z,6.63
2023-04-16T07:27:25.412Z,6.40
2023-04-16T07:29:52.848Z,6.03
2023-04-16T07:32:20.950Z,6.37
2023-04-16T07:34:49.802Z,5.97
2023-04-16T07:37:17.202Z,5.73
2023-04-16T07:39:44.572Z,5.77
2023-04-16T07:42:11.921Z,5.83
2023-04-16T07:44:39.758Z,5.33
2023-04-16T07:47:07.101Z,5.23
2023-04-16T07:49:34.473Z,5.03
2023-04-16T07:52:03.274Z,5.20
2023-04-16T07:54:30.723Z,5.07
2023-04-16T07:56:58.140Z,6.00
2023-04-16T07:59:26.047Z,5.55
2023-04-16T08:01:54.149Z,5.27
2023-04-16T08:04:25.040Z,5.80
2023-04-16T08:06:53.248Z,4.70
2023-04-16T08:09:23.658Z,5.27
2023-04-16T08:11:51.098Z,5.20
2023-04-16T08:14:18.527Z,5.60
2023-04-16T08:16:45.908Z,5.90
2023-04-16T08:19:13.511Z,5.70
2023-04-16T08:21:40.910Z,5.23
2023-04-16T08:24:08.310Z,5.60
2023-04-16T08:26:36.989Z,5.33
2023-04-16T08:29:04.368Z,5.67
2023-04-16T08:31:31.902Z,4.30
2023-04-16T08:33:59.418Z,2.97
2023-04-16T08:36:26.802Z,2.57
2023-04-16T08:38:54.164Z,2.00
2023-04-16T08:41:22.602Z,2.27
2023-04-16T08:43:51.661Z,2.10
2023-04-16T08:46:21.640Z,1.40
2023-04-16T08:48:50.066Z,2.10
2023-04-16T08:51:18.209Z,2.37
2023-04-16T08:53:50.064Z,1.90
2023-04-16T08:56:20.475Z,2.03
2023-04-16T08:58:48.543Z,1.43
2023-04-16T09:01:17.974Z,1.60
2023-04-16T09:03:47.640Z,1.50
2023-04-16T09:06:15.716Z,1.40
2023-04-16T09:08:44.700Z,1.47
2023-04-16T09:11:13.043Z,1.90
2023-04-16T09:13:40.451Z,2.20
2023-04-16T09:16:08.158Z,1.90
2023-04-16T09:18:37.116Z,1.70
2023-04-16T09:21:04.979Z,1.60
2023-04-16T09:23:32.397Z,1.60
2023-04-16T09:26:00.586Z,1.60
2023-04-16T09:28:40.701Z,1.67
2023-04-16T09:31:08.829Z,1.73
2023-04-16T09:33:37.664Z,1.73
2023-04-16T09:36:05.405Z,2.13
2023-04-16T09:38:46.768Z,2.43
2023-04-16T09:41:16.252Z,1.83
2023-04-16T09:43:50.162Z,1.80
2023-04-16T09:46:18.399Z,1.73
2023-04-16T09:48:47.591Z,1.70
2023-04-16T09:51:15.005Z,1.80
2023-04-16T09:53:42.385Z,1.80
2023-04-16T09:56:09.753Z,2.47
2023-04-16T09:58:37.506Z,2.40
2023-04-16T10:01:06.240Z,2.40
2023-04-16T10:03:34.572Z,2.10
2023-04-16T10:06:07.805Z,2.30
2023-04-16T10:08:35.286Z,3.10
2023-04-16T10:11:03.225Z,1.80
2023-04-16T10:13:31.175Z,2.00
2023-04-16T10:15:58.871Z,2.23
2023-04-16T10:18:26.341Z,2.10
2023-04-16T10:20:53.802Z,2.10
2023-04-16T10:23:22.986Z,1.70
2023-04-16T10:25:50.453Z,2.10
2023-04-16T10:28:18.305Z,2.20
2023-04-16T10:30:52.447Z,2.03
2023-04-16T10:33:23.694Z,1.70
2023-04-16T10:36:01.175Z,1.97
2023-04-16T10:38:34.002Z,1.63
2023-04-16T10:41:02.790Z,1.43
2023-04-16T10:43:30.913Z,1.70
2023-04-16T10:45:58.365Z,1.47
2023-04-16T10:48:27.463Z,1.60
2023-04-16T10:50:58.735Z,1.37
2023-04-16T10:53:27.027Z,1.30
2023-04-16T10:55:59.500Z,1.47
2023-04-16T10:58:29.787Z,1.43
2023-04-16T11:00:59.980Z,1.60
2023-04-16T11:03:31.154Z,1.40
2023-04-16T11:06:10.726Z,1.90
2023-04-16T11:08:51.127Z,1.60
2023-04-16T11:11:23.343Z,1.70
2023-04-16T11:13:50.872Z,1.70
2023-04-16T11:16:18.283Z,1.50
2023-04-16T11:18:51.428Z,1.60
2023-04-16T11:21:20.450Z,2.20
2023-04-16T11:23:49.243Z,1.60
2023-04-16T11:26:26.577Z,1.63
2023-04-16T11:28:54.539Z,1.60
2023-04-16T11:31:23.116Z,1.77
2023-04-16T11:33:50.787Z,1.90
2023-04-16T11:36:18.186Z,1.83
2023-04-16T11:38:45.560Z,1.70
2023-04-16T11:41:19.828Z,1.60
2023-04-16T11:43:48.559Z,1.50
2023-04-16T11:46:26.923Z,1.53
2023-04-16T11:48:56.536Z,1.73
2023-04-16T11:51:24.243Z,1.70
2023-04-16T11:53:52.856Z,1.90
2023-04-16T11:56:27.337Z,1.80
2023-04-16T11:59:09.225Z,1.90
2023-04-16T12:01:37.913Z,1.80
2023-04-16T12:04:06.136Z,1.87
2023-04-16T12:06:33.722Z,1.70
2023-04-16T12:09:01.517Z,1.70
2023-04-16T12:11:38.973Z,1.60
2023-04-16T12:14:10.646Z,1.83
2023-04-16T12:16:38.097Z,2.63
2023-04-16T12:19:06.178Z,1.73
2023-04-16T12:21:37.226Z,1.80
2023-04-16T12:24:04.708Z,2.70
2023-04-16T12:26:37.500Z,1.90
2023-04-16T12:29:16.785Z,2.03
2023-04-16T12:31:44.246Z,1.70
2023-04-16T12:34:11.618Z,1.70
2023-04-16T12:36:39.350Z,1.80
2023-04-16T12:39:07.429Z,1.50
2023-04-16T12:41:37.357Z,2.07
2023-04-16T12:44:09.042Z,2.07
2023-04-16T12:46:38.370Z,1.60
2023-04-16T12:49:06.286Z,1.50
2023-04-16T12:51:33.801Z,1.50
2023-04-16T12:54:02.479Z,1.40
2023-04-16T12:56:30.074Z,1.50
2023-04-16T12:58:57.485Z,1.50
2023-04-16T13:01:24.896Z,1.53
2023-04-16T13:03:53.823Z,2.00
2023-04-16T13:06:21.647Z,2.30
2023-04-16T13:08:49.028Z,2.47
2023-04-16T13:11:16.448Z,2.30
2023-04-16T13:13:43.845Z,2.60
2023-04-16T13:16:12.535Z,2.97
2023-04-16T13:18:40.128Z,2.90
2023-04-16T13:21:09.019Z,2.83
2023-04-16T13:23:36.428Z,2.40
2023-04-16T13:26:03.787Z,2.67
2023-04-16T13:28:31.304Z,2.30
2023-04-16T13:30:58.799Z,2.23
2023-04-16T13:33:26.661Z,1.90
2023-04-16T13:35:54.065Z,2.20
2023-04-16T13:38:22.845Z,1.90
2023-04-16T13:40:50.212Z,2.00
2023-04-16T13:43:18.844Z,2.20
2023-04-16T13:45:46.307Z,2.70
2023-04-16T13:48:13.687Z,3.00
2023-04-16T13:50:41.228Z,3.00
2023-04-16T13:53:08.586Z,2.30
2023-04-16T13:55:37.315Z,2.23
2023-04-16T13:58:04.752Z,2.27
2023-04-16T14:00:32.164Z,2.00
2023-04-16T14:02:59.814Z,1.90
2023-04-16T14:05:27.406Z,1.70
2023-04-16T14:07:54.784Z,1.60
2023-04-16T14:10:22.216Z,1.60
2023-04-16T14:12:51.250Z,1.30
2023-04-16T14:15:18.776Z,1.47
2023-04-16T14:17:46.670Z,1.40
2023-04-16T14:20:14.968Z,1.60
2023-04-16T14:22:43.782Z,1.50
2023-04-16T14:25:11.162Z,1.80
2023-04-16T14:27:38.643Z,1.83
2023-04-16T14:30:08.283Z,1.53
2023-04-16T14:32:36.153Z,1.97
2023-04-16T14:35:04.183Z,1.90
2023-04-16T14:37:31.647Z,2.00
2023-04-16T14:39:59.020Z,2.27
2023-04-16T14:42:27.003Z,2.57
2023-04-16T14:44:54.447Z,2.00
2023-04-16T14:47:23.418Z,2.30
2023-04-16T14:49:50.842Z,2.07
2023-04-16T14:52:18.306Z,2.03
2023-04-16T14:54:45.720Z,1.97
2023-04-16T14:57:13.083Z,1.90
2023-04-16T14:59:40.470Z,3.13
2023-04-16T15:02:07.954Z,2.60
2023-04-16T15:04:36.767Z,2.67
2023-04-16T15:07:04.119Z,2.43
2023-04-16T15:09:32.206Z,2.43
2023-04-16T15:11:59.634Z,2.50
2023-04-16T15:14:26.971Z,2.50
2023-04-16T15:16:54.639Z,3.27
2023-04-16T15:19:22.290Z,3.17
2023-04-16T15:21:51.570Z,2.90
2023-04-16T15:24:19.034Z,3.43
2023-04-16T15:26:46.419Z,4.23
2023-04-16T15:29:13.995Z,4.20
2023-04-16T15:31:41.428Z,3.87
2023-04-16T15:34:09.178Z,4.13
2023-04-16T15:36:36.780Z,4.13
2023-04-16T15:39:05.780Z,4.00
2023-04-16T15:41:36.241Z,4.17
2023-04-16T15:44:04.435Z,4.77
2023-04-16T15:46:31.858Z,4.90
2023-04-16T15:48:59.232Z,5.00
2023-04-16T15:51:26.625Z,5.10
2023-04-16T15:53:54.046Z,5.20
2023-04-16T15:56:22.782Z,5.37
2023-04-16T15:58:50.144Z,5.20
2023-04-16T16:01:17.904Z,5.23
2023-04-16T16:03:45.469Z,5.10
2023-04-16T16:06:13.058Z,5.23
2023-04-16T16:08:40.594Z,6.10
2023-04-16T16:11:08.052Z,5.60
2023-04-16T16:13:36.904Z,5.33
2023-04-16T16:16:04.440Z,5.33
2023-04-16T16:18:32.191Z,5.70
2023-04-16T16:20:59.971Z,6.13
2023-04-16T16:23:27.484Z,5.63
2023-04-16T16:25:55.268Z,6.13
2023-04-16T16:28:24.100Z,6.40
2023-04-16T16:30:54.665Z,7.17
2023-04-16T16:33:22.090Z,6.67
2023-04-16T16:35:49.503Z,9.03
2023-04-16T16:38:17.560Z,7.00
2023-04-16T16:40:44.992Z,6.40
2023-04-16T16:43:12.483Z,6.73
2023-04-16T16:45:39.958Z,6.30
2023-04-16T16:48:09.314Z,6.43
2023-04-16T16:50:36.720Z,6.10
2023-04-16T16:53:04.150Z,5.97
2023-04-16T16:55:31.994Z,6.90
2023-04-16T16:57:59.405Z,7.47
2023-04-16T17:00:27.934Z,7.13
2023-04-16T17:02:55.400Z,7.70
2023-04-16T17:05:24.230Z,7.57
2023-04-16T17:07:51.664Z,7.20
2023-04-16T17:10:21.184Z,6.77
2023-04-16T17:12:49.036Z,8.03
2023-04-16T17:15:17.249Z,7.13
2023-04-16T17:17:46.013Z,7.83
2023-04-16T17:20:14.175Z,8.47
2023-04-16T17:22:42.993Z,8.20
2023-04-16T17:25:10.680Z,7.90
2023-04-16T17:27:38.033Z,7.43
2023-04-16T17:30:06.567Z,7.37
2023-04-16T17:32:34.000Z,6.87
2023-04-16T17:35:03.895Z,7.60
2023-04-16T17:37:31.331Z,7.20
2023-04-16T17:40:00.355Z,7.83
2023-04-16T17:42:27.888Z,7.07
2023-04-16T17:44:56.454Z,6.83
2023-04-16T17:47:23.884Z,7.87
2023-04-16T17:49:53.707Z,7.77
2023-04-16T17:52:21.359Z,7.40
2023-04-16T17:54:49.245Z,7.80
2023-04-16T17:57:17.992Z,7.53
2023-04-16T17:59:45.418Z,7.80
2023-04-16T18:02:12.874Z,7.57
2023-04-16T18:04:40.718Z,7.33
2023-04-16T18:07:08.240Z,7.40
2023-04-16T18:09:35.644Z,8.43
2023-04-16T18:12:03.214Z,7.60
2023-04-16T18:14:31.980Z,6.93
2023-04-16T18:16:59.772Z,7.23
2023-04-16T18:19:27.124Z,7.10
2023-04-16T18:21:54.489Z,7.10
2023-04-16T18:24:21.928Z,7.53
2023-04-16T18:26:49.318Z,9.00
2023-04-16T18:29:17.990Z,6.93
2023-04-16T18:31:47.414Z,7.27
2023-04-16T18:34:15.013Z,7.70
2023-04-16T18:36:42.470Z,7.23
2023-04-16T18:39:09.876Z,7.37
2023-04-16T18:41:37.317Z,6.70
2023-04-16T18:44:04.748Z,7.87
2023-04-16T18:46:32.198Z,9.17
2023-04-16T18:49:01.720Z,7.77
2023-04-16T18:51:29.129Z,8.83
2023-04-16T18:53:56.666Z,11.17
2023-04-16T18:56:24.129Z,11.07
2023-04-16T18:58:51.628Z,11.47
2023-04-16T19:01:19.056Z,12.07
2023-04-16T19:03:47.343Z,10.37
2023-04-16T19:06:16.154Z,8.87
2023-04-16T19:08:43.531Z,8.93
2023-04-16T19:11:10.955Z,10.70
2023-04-16T19:13:39.147Z,11.83
2023-04-16T19:16:11.148Z,10.63
2023-04-16T19:18:39.009Z,9.00
2023-04-16T19:21:06.925Z,8.70
2023-04-16T19:23:35.688Z,8.77
2023-04-16T19:26:03.691Z,8.53
2023-04-16T19:28:31.166Z,8.57
2023-04-16T19:30:58.557Z,8.70
2023-04-16T19:33:26.096Z,9.57
2023-04-16T19:35:53.511Z,8.03
2023-04-16T19:38:20.923Z,8.17
2023-04-16T19:40:50.170Z,8.33
2023-04-16T19:43:17.663Z,9.17
2023-04-16T19:45:45.087Z,7.97
2023-04-16T19:48:12.639Z,7.73
2023-04-16T19:50:40.541Z,8.10
2023-04-16T19:53:08.109Z,8.57
2023-04-16T19:55:35.770Z,9.93
2023-04-16T19:58:06.791Z,8.87
2023-04-16T20:00:34.559Z,8.23
2023-04-16T20:03:02.023Z,8.67
2023-04-16T20:05:29.558Z,8.83
2023-04-16T20:07:57.394Z,8.13
2023-04-16T20:10:25.279Z,8.00
2023-04-16T20:12:52.761Z,8.77
2023-04-16T20:15:21.587Z,8.37
2023-04-16T20:17:49.002Z,8.37
2023-04-16T20:20:17.275Z,7.73
2023-04-16T20:22:44.638Z,8.37
2023-04-16T20:25:14.209Z,8.47
2023-04-16T20:27:41.599Z,8.30
2023-04-16T20:30:09.292Z,9.07
2023-04-16T20:32:38.048Z,8.70
2023-04-16T20:35:10.205Z,7.70
2023-04-16T20:37:38.341Z,8.33
2023-04-16T20:40:07.329Z,9.50
2023-04-16T20:42:34.724Z,7.50
2023-04-16T20:45:02.138Z,8.17
2023-04-16T20:47:29.567Z,7.87
2023-04-16T20:50:01.654Z,7.63
2023-04-16T20:52:29.063Z,8.23
2023-04-16T20:54:56.461Z,8.00
2023-04-16T20:57:23.878Z,7.27
2023-04-16T20:59:51.316Z,7.23
2023-04-16T21:02:20.064Z,7.57
2023-04-16T21:04:47.718Z,7.10
2023-04-16T21:07:16.556Z,6.90
2023-04-16T21:09:43.937Z,7.30
2023-04-16T21:12:11.343Z,7.50
2023-04-16T21:14:38.714Z,8.80
2023-04-16T21:17:06.113Z,8.00
2023-04-16T21:19:33.529Z,7.47
2023-04-16T21:22:02.362Z,7.60
2023-04-16T21:24:32.208Z,6.63
2023-04-16T21:26:59.584Z,7.23
2023-04-16T21:29:27.075Z,7.40
2023-04-16T21:31:55.089Z,7.77
2023-04-16T21:34:24.098Z,7.50
2023-04-16T21:36:51.494Z,7.77
2023-04-16T21:39:21.410Z,7.80
2023-04-16T21:41:50.301Z,7.53
2023-04-16T21:44:17.697Z,8.03
2023-04-16T21:46:45.113Z,9.17
2023-04-16T21:49:12.667Z,9.57
2023-04-16T21:51:42.877Z,7.03
2023-04-16T21:54:10.271Z,8.07
2023-04-16T21:56:37.667Z,8.00
2023-04-16T21:59:06.362Z,8.20
2023-04-16T22:01:33.785Z,7.93
2023-04-16T22:04:02.044Z,8.73
2023-04-16T22:06:29.472Z,9.50
2023-04-16T22:08:58.800Z,8.10
2023-04-16T22:11:26.245Z,8.10
2023-04-16T22:13:57.586Z,9.03
2023-04-16T22:16:26.656Z,8.47
2023-04-16T22:18:56.435Z,8.53
2023-04-16T22:21:24.820Z,8.20
2023-04-16T22:23:52.180Z,10.00
2023-04-16T22:26:19.580Z,8.20
2023-04-16T22:28:47.199Z,8.10
2023-04-16T22:31:14.576Z,8.60
2023-04-16T22:33:43.310Z,9.30
2023-04-16T22:36:10.702Z,8.93
2023-04-16T22:38:38.608Z,8.37
2023-04-16T22:41:06.165Z,9.23
2023-04-16T22:43:34.874Z,8.10
2023-04-16T22:46:04.398Z,8.13
2023-04-16T22:48:31.968Z,9.03
2023-04-16T22:51:00.816Z,11.67
2023-04-16T22:53:28.214Z,9.93
2023-04-16T22:55:55.623Z,9.10
2023-04-16T22:58:23.005Z,9.63
2023-04-16T23:00:51.739Z,9.90
2023-04-16T23:03:19.424Z,10.77
2023-04-16T23:05:46.856Z,11.97
2023-04-16T23:08:15.706Z,9.80
2023-04-16T23:10:43.102Z,11.97
2023-04-16T23:13:10.643Z,10.20
2023-04-16T23:15:38.108Z,11.60
2023-04-16T23:18:05.562Z,10.13
2023-04-16T23:20:32.999Z,9.80
2023-04-16T23:23:00.405Z,9.60
2023-04-16T23:25:29.313Z,10.57
2023-04-16T23:27:56.719Z,9.13
2023-04-16T23:30:24.132Z,19.77
2023-04-16T23:32:51.546Z,12.33
2023-04-16T23:35:22.674Z,11.60
2023-04-16T23:37:50.156Z,14.27
2023-04-16T23:40:17.616Z,12.53
2023-04-16T23:42:46.350Z,11.63
2023-04-16T23:45:13.742Z,11.73
2023-04-16T23:47:41.288Z,12.50
2023-04-16T23:50:08.893Z,12.60
2023-04-16T23:52:36.258Z,11.73
2023-04-16T23:55:03.688Z,12.83
2023-04-16T23:57:31.099Z,11.70
2023-04-16T23:59:59.842Z,11.40
